Motte Rimrock Reserve, California Weather observations

Data are for 10 minute period ending at time listed.
 Day   Time   Solar   Ave.   Ave.  Ave.  Vector  Max.   Baro.   Total    
  of    of     Rad.   Air    Rel.  Wind   Wind   Wind  Press.  Precip.   
Year   Day            Temp.  Hum.  Speed  Dir.   Gust                    
2018   (PST)  Kw/m2    F      %     mph   deg.    mph    mb.     in.     
-------------------------------------------------------------------------
  50   21:00   0.00   38.5    37    9.5   318    12.5   945.5    0.00 
  50   21:10   0.00   39.1    32    7.8   317    11.7   945.7    0.00 
  50   21:20   0.00   38.8    31    7.4   324     9.6   945.8    0.00 
  50   21:30   0.00   38.2    31    7.5   316     9.5   945.8    0.00 
  50   21:40   0.00   38.6    29    5.8   307     9.3   946.0    0.00 
  50   21:50   0.00   38.5    29    6.7   304     9.3   946.1    0.00 
  50   22:00   0.00   38.5    28    5.8   322     7.4   946.2    0.00 
  50   22:10   0.00   38.6    28    3.8   324     5.3   946.4    0.00 
  50   22:20   0.00   38.8    27    3.9   317     5.0   946.4    0.00 
  50   22:30   0.00   38.5    26    4.2   324     5.3   946.4    0.00 
  50   22:40   0.00   38.2    27    4.2   317     6.1   946.6    0.00 
  50   22:50   0.00   38.8    25    3.0   328     3.8   946.8    0.00 
  50   23:00   0.00   38.5    26    4.5   289     5.5   946.9    0.00 
  50   23:10   0.00   37.8    27    4.4   290     5.3   947.0    0.00 
  50   23:20   0.00   38.2    27    5.4   294     7.8   947.1    0.00 
  50   23:30   0.00   37.1    29    6.6   287     7.8   947.3    0.00 
  50   23:40   0.00   36.1    30    5.9   279     7.2   947.4    0.00 
  50   23:50   0.00   37.1    28    5.6   288     6.6   947.6    0.00 
  51    0:00   0.00   37.5    26    6.2   303     8.0   947.6    0.00 
  51    0:10   0.00   37.7    26    5.9   305     7.5   947.7    0.00 
  51    0:20   0.00   38.1    25    5.1   304     5.8   947.9    0.00 
  51    0:30   0.00   37.8    25    5.6   311     6.1   947.9    0.00 
  51    0:40   0.00   37.5    26    5.5   312     6.6   947.9    0.00 
  51    0:50   0.00   38.0    25    5.7   303     6.7   947.9    0.00 
  51    1:00   0.00   38.1    25    5.2   304     5.9   948.1    0.00 
  51    1:10   0.00   38.0    25    5.1   294     5.6   948.1    0.00 
  51    1:20   0.00   38.0    25    4.1   286     5.2   948.1    0.00 
  51    1:30   0.00   37.5    25    5.3   285     6.4   948.0    0.00 
  51    1:40   0.00   37.1    25    3.9   288     6.0   948.0    0.00 
  51    1:50   0.00   37.7    24    3.5   272     4.0   947.9    0.00 
  51    2:00   0.00   37.8    24    3.7   279     5.0   947.9    0.00 
  51    2:10   0.00   38.0    24    1.4   243     3.1   947.9    0.00 
  51    2:20   0.00   37.6    24    1.6   256     2.6   947.8    0.00 
  51    2:30   0.00   38.1    23    1.6   239     2.9   947.8    0.00 
  51    2:40   0.00   37.8    24    1.4   176     2.8   947.8    0.00 
  51    2:50   0.00   36.8    25    1.7   154     2.9   947.8    0.00 
  51    3:00   0.00   34.5    33    5.8   129     9.3   947.8    0.00 
  51    3:10   0.00   32.1    48    5.5   134     6.6   947.8    0.00 
  51    3:20   0.00   32.6    47    6.4   124     7.3   947.7    0.00 
  51    3:30   0.00   32.2    49    6.1   115     7.5   947.8    0.00 
  51    3:40   0.00   32.3    47    6.2   120     7.5   947.8    0.00 
  51    3:50   0.00   32.1    47    5.9   116     7.0   947.9    0.00 
  51    4:00   0.00   33.2    43    5.9   104     7.0   947.9    0.00 
  51    4:10   0.00   33.5    42    4.4   110     5.8   947.9    0.00 
  51    4:20   0.00   33.6    42    3.7   139     5.0   948.0    0.00 
  51    4:30   0.00   33.0    43    3.9   171     4.6   948.1    0.00 
  51    4:40   0.00   31.7    47    3.0   203     4.5   948.2    0.00 
  51    4:50   0.00   31.4    50    2.5   208     3.1   948.5    0.00 
  51    5:00   0.00   32.5    48    2.8   206     3.1   948.6    0.00 
  51    5:10   0.00   32.6    46    1.6   203     2.7   948.8    0.00 
  51    5:20   0.00   33.3    40    2.2   188     3.4   948.9    0.00 
  51    5:30   0.00   34.2    32    2.0   211     3.8   949.0    0.00 
  51    5:40   0.00   34.2    32    1.6   217     2.3   949.2    0.00 
  51    5:50   0.00   34.1    34    0.6   108     2.6   949.3    0.00 
  51    6:00   0.00   33.3    42    2.7    74     4.7   949.5    0.00 
  51    6:10   0.00   32.4    48    4.0    61     5.5   949.6    0.00 
  51    6:20   0.00   32.7    47    4.5    60     5.0   949.8    0.00 
  51    6:30   0.00   32.4    49    5.1    58     6.1   950.0    0.00 
  51    6:40   0.00   31.9    52    5.3    56     6.1   950.1    0.00 
  51    6:50   0.02   32.3    52    5.3    52     6.6   950.2    0.00 
  51    7:00   0.05   33.5    52    5.4    49     6.9   950.4    0.00 
  51    7:10   0.07   34.6    50    4.6    54     5.6   950.6    0.00 
  51    7:20   0.11   35.4    50    4.5    57     6.1   950.7    0.00 
  51    7:30   0.14   36.5    48    4.2    53     5.6   950.9    0.00 
  51    7:40   0.18   37.5    45    3.4    64     4.6   951.0    0.00 
  51    7:50   0.21   38.0    44    3.4    66     4.7   951.0    0.00 
  51    8:00   0.25   38.9    41    2.7    72     4.1   951.2    0.00 
  51    8:10   0.28   40.2    38    2.9    83     4.1   951.2    0.00 
  51    8:20   0.32   40.3    39    2.9    89     4.5   951.3    0.00 
  51    8:30   0.35   41.1    34    2.9   106     4.5   951.2    0.00 
  51    8:40   0.38   41.5    31    3.2   121     4.8   951.2    0.00 
  51    8:50   0.42   42.0    29    2.9   106     4.5   951.1    0.00 
  51    9:00   0.45   42.9    29    3.0   130     5.2   951.1    0.00 
  51    9:10   0.48   43.4    27    2.4   102     5.5   951.1    0.00 
  51    9:20   0.51   44.0    25    3.0   119     6.3   951.1    0.00 
  51    9:30   0.53   44.0    25    4.0   132     6.1   951.1    0.00 
  51    9:40   0.56   44.1    25    2.9    95     5.8   951.2    0.00 
  51    9:50   0.58   44.9    24    3.8    81     6.2   951.1    0.00 
  51   10:00   0.61   44.7    23    3.7    59     7.1   951.2    0.00 
  51   10:10   0.63   45.5    22    3.0    41     5.6   951.2    0.00 
  51   10:20   0.65   46.1    22    2.8    61     7.9   951.3    0.00 
  51   10:30   0.67   46.3    22    3.3    67     7.2   951.3    0.00 
  51   10:40   0.69   47.2    21    3.7    40     7.5   951.4    0.00 
  51   10:50   0.67   48.1    22    3.7    90     6.9   951.4    0.00 
  51   11:00   0.71   48.8    20    3.9   102     8.7   951.4    0.00 
  51   11:10   0.72   49.3    18    3.6   145     6.4   951.4    0.00 
  51   11:20   0.73   49.4    17    3.7   111     7.9   951.3    0.00 
  51   11:30   0.74   49.3    16    2.6    65     6.4   951.3    0.00 
  51   11:40   0.75   50.3    15    2.8   284     4.7   951.2    0.00 
  51   11:50   0.75   50.9    14    6.1   117    11.4   951.1    0.00 
  51   12:00   0.76   50.5    14    3.0   139     8.0   951.1    0.00 
  51   12:10   0.76   51.9    13    3.4   193     6.6   950.9    0.00 
  51   12:20   0.76   52.1    12    5.3   119     9.4   950.8    0.00 
  51   12:30   0.76   52.0    11    5.8   115    10.4   950.7    0.00 
  51   12:40   0.75   51.4    11    4.1   112     8.3   950.6    0.00 
  51   12:50   0.75   51.8    11    2.5   324     6.8   950.4    0.00 
  51   13:00   0.74   52.6    11    3.3   303     6.1   950.2    0.00 
  51   13:10   0.73   53.3    10    1.8   270     4.9   950.1    0.00 
  51   13:20   0.72   54.7    11    5.3   121    13.2   950.0    0.00 
  51   13:30   0.70   52.4    11    5.7    88    11.2   950.0    0.00 
  51   13:40   0.69   52.7    11    3.7   107    10.7   950.0    0.00 
  51   13:50   0.67   53.1    11    5.4    70    11.8   949.9    0.00 
  51   14:00   0.65   53.1    11    2.7    24     8.9   949.9    0.00 
  51   14:10   0.60   54.6    10    2.3    31     8.0   949.9    0.00 
  51   14:20   0.61   53.6    10    5.2   344    10.5   949.8    0.00 
  51   14:30   0.59   53.2    10    4.3   353     9.5   949.8    0.00 
  51   14:40   0.56   53.9    10    3.1     9    10.3   949.7    0.00 
  51   14:50   0.54   54.0    10    3.9     0     8.6   949.8    0.00 
  51   15:00   0.51   53.5    10    3.7    30     8.1   949.7    0.00 
  51   15:10   0.48   54.2    10    3.3     4     8.3   949.7    0.00 
  51   15:20   0.45   54.2     9    4.4   357     7.5   949.7    0.00 
  51   15:30   0.42   53.7     9    4.4    17     8.5   949.6    0.00 
  51   15:40   0.39   53.6     9    3.5     8     5.7   949.6    0.00 
  51   15:50   0.35   53.4     9    3.7    51     5.8   949.6    0.00 
  51   16:00   0.32   53.4     9    2.0    85     5.0   949.4    0.00 
  51   16:10   0.28   53.7     9    2.9    35     6.6   949.3    0.00 
  51   16:20   0.25   53.6     9    1.9    41     3.1   949.4    0.00 
  51   16:30   0.21   53.7     9    2.3   328     5.8   949.5    0.00 
  51   16:40   0.17   53.4     9    2.9    10     5.6   949.5    0.00 
  51   16:50   0.14   52.7     9    2.3   343     4.5   949.5    0.00 
  51   17:00   0.10   52.7     9    2.0   328     4.4   949.5    0.00 
  51   17:10   0.07   52.1     9    2.9   323     5.6   949.4    0.00 
  51   17:20   0.04   51.7    10    3.3   317     8.1   949.5    0.00 
  51   17:30   0.02   50.3    11    5.8   314     8.2   949.5    0.00 
  51   17:40   0.00   48.6    19   11.3   298    16.9   949.3    0.00 
  51   17:50   0.00   47.4    23   11.8   290    16.5   949.2    0.00 
  51   18:00   0.00   46.5    24   10.0   277    14.0   949.2    0.00 
  51   18:10   0.00   45.8    25    8.8   262    11.8   949.3    0.00 
  51   18:20   0.00   45.3    25    7.4   237     9.3   949.5    0.00 
  51   18:30   0.00   45.3    25    7.1   250     9.1   949.4    0.00 
  51   18:40   0.00   44.7    25    5.9   272     7.7   949.5    0.00 
  51   18:50   0.00   44.1    26    4.9   264     7.1   949.5    0.00 
  51   19:00   0.00   44.6    25    3.4   202     4.7   949.7    0.00 
  51   19:10   0.00   43.4    27    7.1   123     8.7   949.8    0.00 
  51   19:20   0.00   42.9    28    5.5   135     7.2   950.0    0.00 
  51   19:30   0.00   42.2    30    4.7   153     5.9   950.2    0.00 
  51   19:40   0.00   42.2    31    4.3   152     5.8   950.3    0.00 
  51   19:50   0.00   42.6    31    2.7   153     4.2   950.5    0.00 
  51   20:00   0.00   42.8    30    2.7    96     5.0   950.7    0.00 
  51   20:10   0.00   42.4    31    4.7    77     5.8   950.9    0.00 
  51   20:20   0.00   41.6    32    4.1    87     4.7   950.9    0.00 
  51   20:30   0.00   41.3    33    5.2    96     6.2   951.0    0.00 
  51   20:40   0.00   41.5    34    6.4   103     8.9   951.0    0.00 
  51   20:50   0.00   41.5    33    6.4   111     8.9   951.2    0.00 

Return to Motte Rimrock Reserve graphs page.


Western Regional Climate Center,wrcc@dri.edu